createdAt,value
2022-10-18T00:00:55.291Z,3.70
2022-10-18T00:03:37.078Z,3.60
2022-10-18T00:06:05.242Z,3.50
2022-10-18T00:08:31.974Z,3.70
2022-10-18T00:10:58.602Z,3.70
2022-10-18T00:13:25.629Z,3.60
2022-10-18T00:15:59.710Z,3.50
2022-10-18T00:18:27.670Z,3.10
2022-10-18T00:21:06.501Z,3.60
2022-10-18T00:23:34.249Z,3.30
2022-10-18T00:26:02.671Z,3.20
2022-10-18T00:28:29.468Z,3.60
2022-10-18T00:30:56.678Z,3.70
2022-10-18T00:33:23.465Z,3.70
2022-10-18T00:35:50.062Z,3.40
2022-10-18T00:38:16.892Z,3.30
2022-10-18T00:40:43.642Z,3.10
2022-10-18T00:43:15.367Z,3.30
2022-10-18T00:45:42.416Z,3.70
2022-10-18T00:48:11.008Z,3.80
2022-10-18T00:50:37.996Z,3.60
2022-10-18T00:53:12.477Z,3.50
2022-10-18T00:55:39.222Z,3.90
2022-10-18T00:58:07.465Z,3.60
2022-10-18T01:00:38.176Z,4.00
2022-10-18T01:03:05.859Z,3.80
2022-10-18T01:05:36.231Z,4.20
2022-10-18T01:08:28.994Z,3.90
2022-10-18T01:11:22.861Z,4.60
2022-10-18T01:14:07.692Z,4.20
2022-10-18T01:16:43.090Z,4.80
2022-10-18T01:19:40.596Z,4.50
2022-10-18T01:22:13.322Z,4.20
2022-10-18T01:25:06.447Z,4.30
2022-10-18T01:28:14.863Z,4.30
2022-10-18T01:30:47.495Z,4.40
2022-10-18T01:33:37.040Z,4.00
2022-10-18T01:36:25.515Z,4.60
2022-10-18T01:38:56.953Z,4.30
2022-10-18T01:41:25.032Z,4.00
2022-10-18T01:43:56.888Z,4.50
2022-10-18T01:46:25.334Z,4.00
2022-10-18T01:48:54.052Z,3.80
2022-10-18T01:51:26.620Z,4.70
2022-10-18T01:53:53.713Z,3.80
2022-10-18T01:56:31.852Z,4.10
2022-10-18T01:59:23.572Z,4.60
2022-10-18T02:02:02.211Z,3.90
2022-10-18T02:04:49.154Z,4.10
2022-10-18T02:07:42.436Z,3.90
2022-10-18T02:10:21.127Z,4.20
2022-10-18T02:12:51.302Z,3.40
2022-10-18T02:15:23.908Z,4.20
2022-10-18T02:17:53.800Z,4.20
2022-10-18T02:20:23.041Z,4.70
2022-10-18T02:22:53.686Z,3.80
2022-10-18T02:25:26.690Z,4.50
2022-10-18T02:27:53.845Z,4.40
2022-10-18T02:30:31.962Z,4.40
2022-10-18T02:33:09.640Z,4.40
2022-10-18T02:35:44.085Z,4.60
2022-10-18T02:38:13.781Z,4.90
2022-10-18T02:43:07.201Z,4.50
2022-10-18T02:45:34.010Z,4.80
2022-10-18T02:48:00.815Z,4.60
2022-10-18T02:50:27.414Z,4.70
2022-10-18T02:52:54.050Z,4.40
2022-10-18T02:55:20.775Z,4.20
2022-10-18T02:57:47.369Z,4.10
2022-10-18T03:00:14.751Z,4.10
2022-10-18T03:02:41.428Z,4.00
2022-10-18T03:05:08.059Z,4.20
2022-10-18T03:07:34.971Z,3.90
2022-10-18T03:10:01.789Z,3.70
2022-10-18T03:12:28.407Z,4.10
2022-10-18T03:14:55.055Z,4.10
2022-10-18T03:17:21.714Z,4.10
2022-10-18T03:19:48.314Z,4.00
2022-10-18T03:22:14.975Z,4.30
2022-10-18T03:24:41.694Z,3.80
2022-10-18T03:27:08.293Z,3.50
2022-10-18T03:29:34.907Z,3.50
2022-10-18T03:32:01.563Z,3.60
2022-10-18T03:34:28.208Z,3.60
2022-10-18T03:36:54.846Z,3.60
2022-10-18T03:39:21.624Z,3.70
2022-10-18T03:41:48.276Z,3.50
2022-10-18T03:44:14.889Z,3.40
2022-10-18T03:46:41.590Z,3.10
2022-10-18T03:49:08.532Z,3.00
2022-10-18T03:51:35.157Z,3.00
2022-10-18T03:54:01.886Z,3.20
2022-10-18T03:56:28.602Z,2.80
2022-10-18T03:58:56.482Z,3.10
2022-10-18T04:01:23.168Z,3.00
2022-10-18T04:03:50.163Z,2.50
2022-10-18T04:06:16.862Z,2.60
2022-10-18T04:08:43.434Z,2.50
2022-10-18T04:11:10.652Z,2.60
2022-10-18T04:13:37.962Z,2.50
2022-10-18T04:16:04.644Z,2.20
2022-10-18T04:18:31.331Z,2.50
2022-10-18T04:20:58.341Z,2.40
2022-10-18T04:23:25.039Z,2.20
2022-10-18T04:25:51.749Z,2.80
2022-10-18T04:28:18.572Z,2.40
2022-10-18T04:30:49.912Z,2.70
2022-10-18T04:33:17.288Z,2.40
2022-10-18T04:35:44.031Z,2.40
2022-10-18T04:38:10.921Z,2.40
2022-10-18T04:40:37.509Z,2.50
2022-10-18T04:43:04.208Z,2.30
2022-10-18T04:45:30.870Z,2.40
2022-10-18T04:47:57.476Z,2.60
2022-10-18T04:50:24.268Z,2.40
2022-10-18T04:52:52.824Z,2.50
2022-10-18T04:55:19.805Z,2.40
2022-10-18T04:57:46.551Z,2.70
2022-10-18T05:00:13.761Z,2.30
2022-10-18T05:02:40.358Z,2.50
2022-10-18T05:05:10.413Z,2.50
2022-10-18T05:07:39.964Z,2.40
2022-10-18T05:10:07.507Z,2.60
2022-10-18T05:12:34.544Z,2.70
2022-10-18T05:15:01.450Z,2.50
2022-10-18T05:17:28.176Z,2.80
2022-10-18T05:19:55.185Z,2.80
2022-10-18T05:22:21.819Z,2.80
2022-10-18T05:24:48.490Z,2.70
2022-10-18T05:27:15.178Z,2.80
2022-10-18T05:29:41.772Z,2.60
2022-10-18T05:32:08.506Z,2.70
2022-10-18T05:34:35.149Z,2.90
2022-10-18T05:37:01.894Z,3.00
2022-10-18T05:39:28.709Z,3.30
2022-10-18T05:41:55.430Z,3.20
2022-10-18T05:44:22.035Z,2.90
2022-10-18T05:46:48.699Z,3.30
2022-10-18T05:49:15.450Z,3.40
2022-10-18T05:51:42.066Z,3.10
2022-10-18T05:54:11.335Z,2.90
2022-10-18T05:59:11.394Z,3.30
2022-10-18T06:01:39.584Z,3.50
2022-10-18T06:04:07.214Z,3.30
2022-10-18T06:06:33.930Z,3.40
2022-10-18T06:09:03.138Z,3.20
2022-10-18T06:11:30.767Z,3.00
2022-10-18T06:13:57.598Z,3.00
2022-10-18T06:16:29.841Z,3.20
2022-10-18T06:18:59.445Z,3.00
2022-10-18T06:21:27.401Z,2.60
2022-10-18T06:23:58.483Z,2.80
2022-10-18T06:26:26.958Z,2.80
2022-10-18T06:28:53.674Z,2.80
2022-10-18T06:31:20.752Z,2.80
2022-10-18T06:33:47.869Z,3.10
2022-10-18T06:36:21.464Z,2.80
2022-10-18T06:38:48.995Z,2.40
2022-10-18T06:41:17.314Z,3.30
2022-10-18T06:43:48.232Z,2.90
2022-10-18T06:46:15.302Z,3.20
2022-10-18T06:48:42.020Z,3.10
2022-10-18T06:51:09.684Z,3.00
2022-10-18T06:53:44.228Z,2.90
2022-10-18T06:56:20.006Z,3.40
2022-10-18T06:58:46.871Z,3.80
2022-10-18T07:01:15.631Z,3.50
2022-10-18T07:03:43.954Z,3.80
2022-10-18T07:06:12.261Z,3.60
2022-10-18T07:08:39.727Z,4.00
2022-10-18T07:11:08.021Z,3.60
2022-10-18T07:13:34.739Z,3.00
2022-10-18T07:16:11.582Z,3.10
2022-10-18T07:18:43.857Z,3.10
2022-10-18T07:21:16.441Z,2.60
2022-10-18T07:23:46.023Z,2.50
2022-10-18T07:26:16.998Z,3.00
2022-10-18T07:28:46.511Z,2.70
2022-10-18T07:31:13.437Z,3.40
2022-10-18T07:33:42.314Z,2.80
2022-10-18T07:36:10.758Z,2.80
2022-10-18T07:38:37.608Z,3.20
2022-10-18T07:41:06.405Z,2.70
2022-10-18T07:43:34.179Z,3.30
2022-10-18T07:46:03.297Z,3.30
2022-10-18T07:48:30.415Z,2.70
2022-10-18T07:51:01.335Z,3.20
2022-10-18T07:53:28.995Z,3.00
2022-10-18T07:56:01.480Z,3.30
2022-10-18T07:58:33.841Z,2.60
2022-10-18T08:01:05.190Z,2.90
2022-10-18T08:03:32.464Z,3.10
2022-10-18T08:05:59.358Z,3.10
2022-10-18T08:08:28.113Z,3.10
2022-10-18T08:10:54.939Z,4.20
2022-10-18T08:13:21.797Z,3.60
2022-10-18T08:15:48.517Z,4.00
2022-10-18T08:18:15.190Z,3.50
2022-10-18T08:20:43.910Z,2.90
2022-10-18T08:23:10.572Z,3.20
2022-10-18T08:25:37.584Z,3.10
2022-10-18T08:28:04.462Z,3.30
2022-10-18T08:30:31.179Z,3.00
2022-10-18T08:32:57.843Z,2.80
2022-10-18T08:35:24.889Z,3.10
2022-10-18T08:37:51.552Z,2.90
2022-10-18T08:40:18.380Z,3.20
2022-10-18T08:43:23.419Z,2.90
2022-10-18T08:45:51.675Z,3.00
2022-10-18T08:48:49.585Z,2.60
2022-10-18T08:51:27.837Z,2.80
2022-10-18T08:54:05.831Z,3.40
2022-10-18T08:56:34.005Z,2.60
2022-10-18T08:59:03.529Z,2.80
2022-10-18T09:04:32.210Z,2.40
2022-10-18T09:06:59.124Z,2.50
2022-10-18T09:10:02.130Z,2.50
2022-10-18T09:12:43.967Z,2.70
2022-10-18T09:15:28.820Z,2.40
2022-10-18T09:18:24.778Z,2.50
2022-10-18T09:20:57.962Z,2.30
2022-10-18T09:23:44.907Z,2.60
2022-10-18T09:26:20.170Z,2.50
2022-10-18T09:29:05.430Z,2.70
2022-10-18T09:31:50.630Z,2.40
2022-10-18T09:34:25.846Z,2.50
2022-10-18T09:36:53.596Z,2.40
2022-10-18T09:39:25.217Z,2.20
2022-10-18T09:41:57.187Z,2.50
2022-10-18T09:44:35.186Z,2.60
2022-10-18T09:47:25.178Z,2.60
2022-10-18T09:49:56.847Z,2.90
2022-10-18T09:52:31.689Z,3.00
2022-10-18T09:55:03.673Z,3.00
2022-10-18T09:57:48.339Z,3.30
2022-10-18T10:00:20.525Z,3.20
2022-10-18T10:02:47.186Z,2.90
2022-10-18T10:05:14.914Z,3.20
2022-10-18T10:07:44.832Z,3.20
2022-10-18T10:10:24.507Z,3.30
2022-10-18T10:13:15.457Z,3.70
2022-10-18T10:16:01.616Z,3.70
2022-10-18T10:18:35.872Z,3.30
2022-10-18T10:21:06.332Z,3.30
2022-10-18T10:23:52.437Z,3.40
2022-10-18T10:26:32.937Z,3.10
2022-10-18T10:29:00.107Z,3.30
2022-10-18T10:31:29.027Z,3.40
2022-10-18T10:34:03.384Z,3.40
2022-10-18T10:36:31.867Z,3.30
2022-10-18T10:39:06.519Z,3.00
2022-10-18T10:41:34.242Z,3.40
2022-10-18T10:44:03.429Z,3.20
2022-10-18T10:46:35.928Z,3.20
2022-10-18T10:49:34.977Z,3.60
2022-10-18T10:52:08.548Z,3.80
2022-10-18T10:54:38.757Z,3.70
2022-10-18T10:57:19.787Z,3.70
2022-10-18T10:59:53.046Z,3.40
2022-10-18T11:02:30.623Z,4.00
2022-10-18T11:05:26.336Z,4.10
2022-10-18T11:07:59.259Z,3.40
2022-10-18T11:10:30.545Z,3.70
2022-10-18T11:13:01.762Z,3.40
2022-10-18T11:15:49.363Z,3.70
2022-10-18T11:18:31.007Z,4.20
2022-10-18T11:21:00.730Z,3.90
2022-10-18T11:23:31.960Z,3.80
2022-10-18T11:26:10.736Z,4.00
2022-10-18T11:28:43.453Z,3.90
2022-10-18T11:31:21.527Z,4.00
2022-10-18T11:34:22.243Z,4.50
2022-10-18T11:37:28.208Z,4.40
2022-10-18T11:40:02.262Z,5.10
2022-10-18T11:42:47.018Z,4.80
2022-10-18T11:45:22.929Z,4.70
2022-10-18T11:47:55.111Z,4.90
2022-10-18T11:50:53.584Z,4.40
2022-10-18T11:53:42.607Z,5.30
2022-10-18T11:56:19.399Z,5.20
2022-10-18T11:59:01.483Z,5.40
2022-10-18T12:01:51.237Z,5.00
2022-10-18T12:04:27.327Z,5.00
2022-10-18T12:06:55.758Z,5.00
2022-10-18T12:09:30.378Z,5.40
2022-10-18T12:12:02.559Z,5.70
2022-10-18T12:14:38.059Z,5.20
2022-10-18T12:17:40.660Z,5.40
2022-10-18T12:20:14.215Z,4.40
2022-10-18T12:22:58.999Z,4.50
2022-10-18T12:25:28.483Z,4.10
2022-10-18T12:28:22.289Z,4.50
2022-10-18T12:31:02.393Z,4.30
2022-10-18T12:33:37.771Z,4.10
2022-10-18T12:36:17.031Z,5.10
2022-10-18T12:38:47.404Z,4.70
2022-10-18T12:41:26.996Z,4.80
2022-10-18T12:43:59.290Z,5.40
2022-10-18T12:46:43.252Z,4.90
2022-10-18T12:49:12.847Z,5.00
2022-10-18T12:51:51.744Z,4.60
2022-10-18T12:54:25.075Z,4.90
2022-10-18T12:56:52.065Z,4.30
2022-10-18T12:59:18.994Z,4.60
2022-10-18T13:01:54.605Z,4.20
2022-10-18T13:04:27.504Z,4.00
2022-10-18T13:06:57.257Z,3.60
2022-10-18T13:09:26.425Z,3.30
2022-10-18T13:12:14.412Z,3.70
2022-10-18T13:15:24.656Z,3.10
2022-10-18T13:18:31.350Z,3.30
2022-10-18T13:21:01.130Z,3.00
2022-10-18T13:26:23.153Z,3.00
2022-10-18T13:28:49.815Z,3.00
2022-10-18T13:31:19.822Z,2.80
2022-10-18T13:33:46.659Z,3.00
2022-10-18T13:36:21.648Z,3.00
2022-10-18T13:38:52.841Z,2.30
2022-10-18T13:41:21.594Z,2.80
2022-10-18T13:44:27.513Z,2.70
2022-10-18T13:46:54.222Z,2.60
2022-10-18T13:49:30.149Z,2.60
2022-10-18T13:52:06.522Z,2.60
2022-10-18T13:55:12.123Z,2.50
2022-10-18T13:57:53.860Z,2.40
2022-10-18T14:00:54.392Z,2.50
2022-10-18T14:06:36.524Z,2.70
2022-10-18T14:09:25.712Z,2.60
2022-10-18T14:12:12.338Z,2.60
2022-10-18T14:15:11.467Z,2.60
2022-10-18T14:17:50.500Z,2.60
2022-10-18T14:20:28.757Z,2.90
2022-10-18T14:23:18.403Z,3.10
2022-10-18T14:25:46.073Z,2.80
2022-10-18T14:28:12.807Z,2.90
2022-10-18T14:30:57.489Z,2.40
2022-10-18T14:33:45.727Z,3.00
2022-10-18T14:36:24.244Z,2.40
2022-10-18T14:38:52.744Z,2.50
2022-10-18T14:41:19.383Z,2.60
2022-10-18T14:43:47.661Z,2.60
2022-10-18T14:46:25.886Z,2.90
2022-10-18T14:48:58.461Z,2.50
2022-10-18T14:51:28.259Z,2.80
2022-10-18T14:56:22.763Z,2.40
2022-10-18T14:58:50.186Z,2.80
2022-10-18T15:01:19.740Z,2.30
2022-10-18T15:03:47.492Z,2.50
2022-10-18T15:06:19.229Z,2.40
2022-10-18T15:08:50.884Z,2.40
2022-10-18T15:11:17.959Z,2.40
2022-10-18T15:13:51.483Z,2.20
2022-10-18T15:16:19.611Z,2.40
2022-10-18T15:19:06.961Z,2.50
2022-10-18T15:21:35.635Z,2.20
2022-10-18T15:24:29.423Z,2.30
2022-10-18T15:27:01.199Z,2.80
2022-10-18T15:29:32.812Z,2.50
2022-10-18T15:32:12.377Z,2.40
2022-10-18T15:34:39.148Z,3.00
2022-10-18T15:37:42.387Z,2.40
2022-10-18T15:40:21.063Z,2.30
2022-10-18T15:42:52.822Z,2.60
2022-10-18T15:45:26.841Z,2.60
2022-10-18T15:47:58.977Z,2.70
2022-10-18T15:50:35.002Z,2.50
2022-10-18T15:53:27.473Z,2.50
2022-10-18T15:55:57.108Z,2.70
2022-10-18T16:00:55.548Z,2.70
2022-10-18T16:03:23.925Z,2.70
2022-10-18T16:05:59.983Z,2.70
2022-10-18T16:08:36.446Z,2.50
2022-10-18T16:11:03.234Z,5.20
2022-10-18T16:13:29.919Z,6.40
2022-10-18T16:15:56.656Z,3.70
2022-10-18T16:18:24.204Z,3.70
2022-10-18T16:20:50.975Z,3.20
2022-10-18T16:23:17.719Z,3.00
2022-10-18T16:25:44.541Z,3.20
2022-10-18T16:28:21.009Z,3.30
2022-10-18T16:31:00.385Z,3.10
2022-10-18T16:33:27.520Z,3.20
2022-10-18T16:35:54.596Z,3.70
2022-10-18T16:38:28.688Z,2.80
2022-10-18T16:40:58.044Z,3.30
2022-10-18T16:47:19.097Z,3.10
2022-10-18T16:49:49.899Z,2.90
2022-10-18T16:52:16.719Z,3.10
2022-10-18T16:54:43.556Z,3.10
2022-10-18T16:57:12.847Z,3.00
2022-10-18T16:59:39.595Z,3.30
2022-10-18T17:02:08.767Z,3.50
2022-10-18T17:04:35.576Z,3.20
2022-10-18T17:07:04.288Z,3.20
2022-10-18T17:09:34.206Z,3.40
2022-10-18T17:12:01.027Z,3.50
2022-10-18T17:14:35.897Z,3.50
2022-10-18T17:18:17.286Z,3.10
2022-10-18T17:20:00.489Z,3.20
2022-10-18T17:22:27.351Z,3.20
2022-10-18T17:24:54.841Z,3.30
2022-10-18T17:27:21.683Z,3.30
2022-10-18T17:29:48.424Z,3.40
2022-10-18T17:32:15.509Z,3.30
2022-10-18T17:34:42.411Z,3.40
2022-10-18T17:37:09.136Z,3.60
2022-10-18T17:39:36.249Z,3.70
2022-10-18T17:42:03.397Z,3.80
2022-10-18T17:44:30.625Z,3.60
2022-10-18T17:47:07.739Z,3.90
2022-10-18T17:49:34.525Z,3.80
2022-10-18T17:52:06.001Z,4.10
2022-10-18T17:54:34.969Z,4.00
2022-10-18T18:04:13.434Z,3.80
2022-10-18T18:06:40.792Z,4.30
2022-10-18T18:09:13.205Z,4.90
2022-10-18T18:11:43.040Z,5.40
2022-10-18T18:14:12.352Z,5.80
2022-10-18T18:16:41.699Z,7.10
2022-10-18T18:19:10.064Z,5.90
2022-10-18T18:21:37.794Z,7.00
2022-10-18T18:24:04.933Z,6.80
2022-10-18T18:26:32.840Z,6.90
2022-10-18T18:31:34.330Z,7.90
2022-10-18T18:34:05.603Z,6.80
2022-10-18T18:36:32.420Z,6.10
2022-10-18T18:38:59.374Z,7.30
2022-10-18T18:41:27.917Z,6.40
2022-10-18T18:43:58.473Z,6.10
2022-10-18T18:46:27.923Z,6.20
2022-10-18T18:48:57.106Z,6.00
2022-10-18T18:51:24.645Z,6.00
2022-10-18T18:53:51.900Z,5.30
2022-10-18T18:56:23.469Z,7.10
2022-10-18T18:58:51.998Z,7.30
2022-10-18T19:01:21.650Z,5.50
2022-10-18T19:03:50.561Z,5.60
2022-10-18T19:06:19.792Z,5.30
2022-10-18T19:08:47.840Z,5.40
2022-10-18T19:11:18.135Z,5.20
2022-10-18T19:13:45.294Z,7.40
2022-10-18T19:16:18.815Z,5.00
2022-10-18T19:18:58.020Z,4.60
2022-10-18T19:21:27.446Z,4.60
2022-10-18T19:23:56.184Z,4.30
2022-10-18T19:26:22.782Z,4.10
2022-10-18T19:28:49.603Z,5.10
2022-10-18T19:31:16.354Z,4.30
2022-10-18T19:33:55.593Z,4.70
2022-10-18T19:36:25.686Z,4.00
2022-10-18T19:38:52.361Z,3.90
2022-10-18T19:41:19.200Z,4.00
2022-10-18T19:43:46.442Z,3.90
2022-10-18T19:46:13.369Z,3.40
2022-10-18T19:48:40.122Z,3.60
2022-10-18T19:51:20.323Z,3.70
2022-10-18T19:53:53.363Z,3.70
2022-10-18T19:56:22.736Z,3.90
2022-10-18T19:58:50.276Z,3.40
2022-10-18T20:01:17.711Z,3.70
2022-10-18T20:03:45.167Z,4.00
2022-10-18T20:06:12.260Z,4.00
2022-10-18T20:08:39.445Z,4.30
2022-10-18T20:11:11.577Z,3.90
2022-10-18T20:13:38.656Z,4.20
2022-10-18T20:16:08.314Z,5.10
2022-10-18T20:21:09.687Z,4.90
2022-10-18T20:23:38.632Z,4.40
2022-10-18T20:26:20.822Z,3.80
2022-10-18T20:28:58.026Z,4.10
2022-10-18T20:31:34.918Z,3.20
2022-10-18T20:34:04.516Z,3.80
2022-10-18T20:36:32.196Z,3.30
2022-10-18T20:38:59.805Z,3.40
2022-10-18T20:41:31.944Z,3.50
2022-10-18T20:44:04.172Z,3.20
2022-10-18T20:46:33.218Z,3.30
2022-10-18T20:49:00.347Z,3.00
2022-10-18T20:51:27.754Z,3.40
2022-10-18T20:53:54.606Z,3.70
2022-10-18T20:56:25.866Z,3.50
2022-10-18T20:58:55.193Z,3.00
2022-10-18T21:01:24.981Z,3.10
2022-10-18T21:06:23.032Z,3.20
2022-10-18T21:09:05.116Z,3.20
2022-10-18T21:11:36.081Z,2.90
2022-10-18T21:14:03.487Z,2.90
2022-10-18T21:16:35.278Z,3.20
2022-10-18T21:19:03.726Z,2.70
2022-10-18T21:21:31.493Z,2.80
2022-10-18T21:23:58.968Z,2.80
2022-10-18T21:26:28.051Z,2.60
2022-10-18T21:28:57.926Z,2.60
2022-10-18T21:31:29.762Z,2.80
2022-10-18T21:34:02.297Z,2.50
2022-10-18T21:36:36.824Z,2.60
2022-10-18T21:39:07.153Z,2.70
2022-10-18T21:41:34.288Z,2.80
2022-10-18T21:44:04.459Z,2.60
2022-10-18T21:46:33.763Z,2.30
2022-10-18T21:49:00.852Z,2.60
2022-10-18T21:51:28.270Z,2.90
2022-10-18T21:53:56.844Z,2.80
2022-10-18T21:56:30.892Z,2.20
2022-10-18T21:58:58.251Z,2.50
2022-10-18T22:01:27.820Z,2.70
2022-10-18T22:06:23.263Z,2.50
2022-10-18T22:08:56.191Z,2.70
2022-10-18T22:11:29.694Z,2.80
2022-10-18T22:13:57.271Z,2.80
2022-10-18T22:16:24.594Z,2.70
2022-10-18T22:18:52.619Z,2.20
2022-10-18T22:21:20.045Z,2.40
2022-10-18T22:23:49.548Z,2.20
2022-10-18T22:26:18.991Z,2.40
2022-10-18T22:28:46.553Z,2.20
2022-10-18T22:31:22.003Z,2.10
2022-10-18T22:33:57.137Z,2.40
2022-10-18T22:36:24.374Z,2.00
2022-10-18T22:38:51.159Z,2.10
2022-10-18T22:41:18.386Z,2.20
2022-10-18T22:43:47.156Z,2.30
2022-10-18T22:46:14.562Z,2.40
2022-10-18T22:48:41.683Z,2.30
2022-10-18T22:51:09.484Z,2.20
2022-10-18T22:53:37.624Z,2.10
2022-10-18T22:56:04.968Z,2.20
2022-10-18T22:58:32.008Z,2.30
2022-10-18T23:01:07.832Z,2.20
2022-10-18T23:03:34.894Z,2.40
2022-10-18T23:06:01.796Z,2.10
2022-10-18T23:08:29.345Z,2.00
2022-10-18T23:10:58.959Z,2.10
2022-10-18T23:13:27.139Z,1.80
2022-10-18T23:16:04.297Z,1.90
2022-10-18T23:18:32.749Z,2.20
2022-10-18T23:21:03.820Z,2.00
2022-10-18T23:23:34.765Z,1.90
2022-10-18T23:26:09.936Z,2.40
2022-10-18T23:28:38.847Z,1.50
2022-10-18T23:31:14.522Z,1.80
2022-10-18T23:33:41.323Z,1.60
2022-10-18T23:36:08.351Z,1.70
2022-10-18T23:38:36.053Z,1.60
2022-10-18T23:41:03.057Z,2.00
2022-10-18T23:43:29.832Z,1.80
2022-10-18T23:45:56.793Z,1.70
2022-10-18T23:48:23.509Z,1.20
2022-10-18T23:50:50.200Z,1.40
2022-10-18T23:53:19.061Z,2.40
2022-10-18T23:55:53.696Z,1.70
2022-10-18T23:58:21.092Z,1.80
